sensor_id;sensor_type;location;lat;lon;timestamp;pressure;altitude;pressure_sealevel;temperature;humidity
25658;BME280;13517;59.320;18.042;2022-09-01T00:00:38;101988.38;;;9.33;100.00
25658;BME280;13517;59.320;18.042;2022-09-01T00:03:07;101971.06;;;9.17;100.00
25658;BME280;13517;59.320;18.042;2022-09-01T00:05:34;101961.44;;;9.09;100.00
25658;BME280;13517;59.320;18.042;2022-09-01T00:08:00;101968.72;;;9.07;100.00
25658;BME280;13517;59.320;18.042;2022-09-01T00:10:25;101988.94;;;9.19;100.00
25658;BME280;13517;59.320;18.042;2022-09-01T00:12:51;101988.97;;;9.18;100.00
25658;BME280;13517;59.320;18.042;2022-09-01T00:15:16;101979.25;;;9.13;100.00
25658;BME280;13517;59.320;18.042;2022-09-01T00:17:42;101985.38;;;9.17;100.00
25658;BME280;13517;59.320;18.042;2022-09-01T00:20:08;101962.38;;;9.08;100.00
25658;BME280;13517;59.320;18.042;2022-09-01T00:22:34;101975.50;;;9.18;100.00
25658;BME280;13517;59.320;18.042;2022-09-01T00:24:59;101955.28;;;9.06;100.00
25658;BME280;13517;59.320;18.042;2022-09-01T00:27:26;101970.38;;;9.10;100.00
25658;BME280;13517;59.320;18.042;2022-09-01T00:29:51;101951.69;;;9.05;100.00
25658;BME280;13517;59.320;18.042;2022-09-01T00:32:17;101975.50;;;9.18;100.00
25658;BME280;13517;59.320;18.042;2022-09-01T00:34:42;101965.84;;;9.12;100.00
25658;BME280;13517;59.320;18.042;2022-09-01T00:37:08;101967.28;;;9.21;100.00
25658;BME280;13517;59.320;18.042;2022-09-01T00:39:34;101937.22;;;9.08;100.00
25658;BME280;13517;59.320;18.042;2022-09-01T00:41:59;101940.88;;;9.07;100.00
25658;BME280;13517;59.320;18.042;2022-09-01T00:44:25;101970.06;;;9.19;100.00
25658;BME280;13517;59.320;18.042;2022-09-01T00:46:53;101977.38;;;9.16;100.00
25658;BME280;13517;59.320;18.042;2022-09-01T00:51:50;101956.28;;;9.03;100.00
25658;BME280;13517;59.320;18.042;2022-09-01T00:54:20;101972.00;;;9.16;100.00
25658;BME280;13517;59.320;18.042;2022-09-01T00:56:47;101973.63;;;9.20;100.00
25658;BME280;13517;59.320;18.042;2022-09-01T00:59:16;101949.00;;;9.05;100.00
25658;BME280;13517;59.320;18.042;2022-09-01T01:01:42;101964.66;;;9.19;100.00
25658;BME280;13517;59.320;18.042;2022-09-01T01:04:08;101975.50;;;9.18;100.00
25658;BME280;13517;59.320;18.042;2022-09-01T01:06:59;101968.41;;;9.15;100.00
25658;BME280;13517;59.320;18.042;2022-09-01T01:09:31;101974.56;;;9.19;100.00
25658;BME280;13517;59.320;18.042;2022-09-01T01:11:59;101970.09;;;9.18;100.00
25658;BME280;13517;59.320;18.042;2022-09-01T01:14:27;101971.91;;;9.17;100.00
25658;BME280;13517;59.320;18.042;2022-09-01T01:16:56;101948.16;;;9.05;100.00
25658;BME280;13517;59.320;18.042;2022-09-01T01:25:38;101967.47;;;9.16;100.00
25658;BME280;13517;59.320;18.042;2022-09-01T01:28:13;101977.38;;;9.16;100.00
25658;BME280;13517;59.320;18.042;2022-09-01T01:30:42;101973.84;;;9.13;100.00
25658;BME280;13517;59.320;18.042;2022-09-01T01:33:09;101950.19;;;8.98;100.00
25658;BME280;13517;59.320;18.042;2022-09-01T01:35:35;101964.25;;;9.06;100.00
25658;BME280;13517;59.320;18.042;2022-09-01T01:38:03;101974.91;;;9.09;100.00
25658;BME280;13517;59.320;18.042;2022-09-01T01:40:31;101964.25;;;9.06;100.00
25658;BME280;13517;59.320;18.042;2022-09-01T01:42:57;101942.47;;;8.89;100.00
25658;BME280;13517;59.320;18.042;2022-09-01T01:45:25;101961.53;;;9.06;100.00
25658;BME280;13517;59.320;18.042;2022-09-01T01:47:52;101961.53;;;9.06;100.00
25658;BME280;13517;59.320;18.042;2022-09-01T01:50:25;101961.53;;;9.06;100.00
25658;BME280;13517;59.320;18.042;2022-09-01T01:52:52;101948.16;;;9.05;100.00
25658;BME280;13517;59.320;18.042;2022-09-01T01:55:19;101962.19;;;9.13;100.00
25658;BME280;13517;59.320;18.042;2022-09-01T01:57:46;101956.69;;;9.16;100.00
25658;BME280;13517;59.320;18.042;2022-09-01T02:00:17;101960.13;;;9.20;100.00
25658;BME280;13517;59.320;18.042;2022-09-01T02:02:48;101958.31;;;9.20;100.00
25658;BME280;13517;59.320;18.042;2022-09-01T02:05:26;101925.59;;;9.07;100.00
25658;BME280;13517;59.320;18.042;2022-09-01T02:07:54;101934.47;;;9.09;100.00
25658;BME280;13517;59.320;18.042;2022-09-01T02:10:25;101945.97;;;9.15;100.00
25658;BME280;13517;59.320;18.042;2022-09-01T02:12:52;101938.34;;;9.02;100.00
25658;BME280;13517;59.320;18.042;2022-09-01T02:15:18;101942.56;;;9.09;100.00
25658;BME280;13517;59.320;18.042;2022-09-01T02:17:43;101942.63;;;9.08;100.00
25658;BME280;13517;59.320;18.042;2022-09-01T02:20:11;101956.88;;;9.11;100.00
25658;BME280;13517;59.320;18.042;2022-09-01T02:22:40;101956.75;;;9.15;100.00
25658;BME280;13517;59.320;18.042;2022-09-01T02:25:08;101954.41;;;9.05;100.00
25658;BME280;13517;59.320;18.042;2022-09-01T02:27:33;101971.22;;;9.12;100.00
25658;BME280;13517;59.320;18.042;2022-09-01T02:30:01;101933.31;;;8.93;100.00
25658;BME280;13517;59.320;18.042;2022-09-01T02:32:26;101956.06;;;9.09;100.00
25658;BME280;13517;59.320;18.042;2022-09-01T02:34:52;101954.13;;;9.13;100.00
25658;BME280;13517;59.320;18.042;2022-09-01T02:37:26;101932.97;;;9.02;100.00
25658;BME280;13517;59.320;18.042;2022-09-01T02:39:52;101959.31;;;9.18;100.00
25658;BME280;13517;59.320;18.042;2022-09-01T02:42:19;101963.72;;;9.20;100.00
25658;BME280;13517;59.320;18.042;2022-09-01T02:44:55;101955.69;;;9.19;100.00
25658;BME280;13517;59.320;18.042;2022-09-01T02:47:23;101960.13;;;9.20;100.00
25658;BME280;13517;59.320;18.042;2022-09-01T02:49:52;101972.66;;;9.21;100.00
25658;BME280;13517;59.320;18.042;2022-09-01T02:52:18;101954.94;;;9.15;100.00
25658;BME280;13517;59.320;18.042;2022-09-01T02:54:47;101954.69;;;9.21;100.00
25658;BME280;13517;59.320;18.042;2022-09-01T02:57:15;101944.03;;;9.18;100.00
25658;BME280;13517;59.320;18.042;2022-09-01T02:59:41;101961.41;;;9.33;100.00
25658;BME280;13517;59.320;18.042;2022-09-01T03:02:07;101963.25;;;9.33;100.00
25658;BME280;13517;59.320;18.042;2022-09-01T03:04:34;101966.59;;;9.38;100.00
25658;BME280;13517;59.320;18.042;2022-09-01T03:07:04;101956.72;;;9.38;100.00
25658;BME280;13517;59.320;18.042;2022-09-01T03:09:29;101951.44;;;9.35;100.00
25658;BME280;13517;59.320;18.042;2022-09-01T03:11:57;101967.25;;;9.45;100.00
25658;BME280;13517;59.320;18.042;2022-09-01T03:14:23;101946.03;;;9.35;100.00
25658;BME280;13517;59.320;18.042;2022-09-01T03:16:48;101927.47;;;9.27;100.00
25658;BME280;13517;59.320;18.042;2022-09-01T03:19:14;101961.97;;;9.42;100.00
25658;BME280;13517;59.320;18.042;2022-09-01T03:21:42;101968.06;;;9.47;100.00
25658;BME280;13517;59.320;18.042;2022-09-01T03:24:10;101961.72;;;9.48;100.00
25658;BME280;13517;59.320;18.042;2022-09-01T03:26:39;101985.06;;;9.49;100.00
25658;BME280;13517;59.320;18.042;2022-09-01T03:29:05;101953.88;;;9.42;100.00
25658;BME280;13517;59.320;18.042;2022-09-01T03:31:31;101950.50;;;9.36;100.00
25658;BME280;13517;59.320;18.042;2022-09-01T03:33:57;101960.22;;;9.40;100.00
25658;BME280;13517;59.320;18.042;2022-09-01T03:36:23;101957.41;;;9.44;100.00
25658;BME280;13517;59.320;18.042;2022-09-01T03:38:50;101972.34;;;9.52;100.00
25658;BME280;13517;59.320;18.042;2022-09-01T03:41:18;101966.19;;;9.49;100.00
25658;BME280;13517;59.320;18.042;2022-09-01T03:43:46;101967.97;;;9.50;100.00
25658;BME280;13517;59.320;18.042;2022-09-01T03:46:12;101938.69;;;9.39;100.00
25658;BME280;13517;59.320;18.042;2022-09-01T03:48:44;101961.63;;;9.51;100.00
25658;BME280;13517;59.320;18.042;2022-09-01T03:51:11;101967.25;;;9.45;100.00
25658;BME280;13517;59.320;18.042;2022-09-01T03:53:38;101957.97;;;9.52;100.00
25658;BME280;13517;59.320;18.042;2022-09-01T03:56:05;101957.03;;;9.53;100.00
25658;BME280;13517;59.320;18.042;2022-09-01T03:58:31;101967.03;;;9.51;100.00
25658;BME280;13517;59.320;18.042;2022-09-01T04:00:58;101968.63;;;9.55;100.00
25658;BME280;13517;59.320;18.042;2022-09-01T04:03:28;101939.53;;;9.41;100.00
25658;BME280;13517;59.320;18.042;2022-09-01T04:05:57;101965.13;;;9.53;100.00
25658;BME280;13517;59.320;18.042;2022-09-01T04:08:23;101956.41;;;9.46;100.00
25658;BME280;13517;59.320;18.042;2022-09-01T04:10:52;101958.75;;;9.56;100.00
25658;BME280;13517;59.320;18.042;2022-09-01T04:13:27;101970.13;;;9.62;100.00
25658;BME280;13517;59.320;18.042;2022-09-01T04:15:55;101948.69;;;9.59;100.00
25658;BME280;13517;59.320;18.042;2022-09-01T04:18:20;101944.31;;;9.57;100.00
25658;BME280;13517;59.320;18.042;2022-09-01T04:20:49;101969.69;;;9.73;100.00
25658;BME280;13517;59.320;18.042;2022-09-01T04:23:29;101963.19;;;9.79;100.00
25658;BME280;13517;59.320;18.042;2022-09-01T04:26:01;101936.56;;;9.70;100.00
25658;BME280;13517;59.320;18.042;2022-09-01T04:28:38;101957.72;;;9.80;100.00
25658;BME280;13517;59.320;18.042;2022-09-01T04:31:07;101937.66;;;9.65;100.00
25658;BME280;13517;59.320;18.042;2022-09-01T04:33:36;101960.59;;;9.76;100.00
25658;BME280;13517;59.320;18.042;2022-09-01T04:36:06;101963.19;;;9.79;100.00
25658;BME280;13517;59.320;18.042;2022-09-01T04:38:32;101940.00;;;9.73;100.00
25658;BME280;13517;59.320;18.042;2022-09-01T04:41:05;101955.69;;;9.86;100.00
25658;BME280;13517;59.320;18.042;2022-09-01T04:43:33;101973.34;;;9.94;100.00
25658;BME280;13517;59.320;18.042;2022-09-01T04:45:59;101962.50;;;9.96;100.00
25658;BME280;13517;59.320;18.042;2022-09-01T04:48:24;101936.88;;;9.84;100.00
25658;BME280;13517;59.320;18.042;2022-09-01T04:50:51;101952.53;;;9.97;100.00
25658;BME280;13517;59.320;18.042;2022-09-01T04:53:17;101947.41;;;9.90;100.00
25658;BME280;13517;59.320;18.042;2022-09-01T04:55:45;101970.13;;;10.07;100.00
25658;BME280;13517;59.320;18.042;2022-09-01T04:58:14;101968.34;;;10.06;100.00
25658;BME280;13517;59.320;18.042;2022-09-01T05:00:43;101965.53;;;10.09;100.00
25658;BME280;13517;59.320;18.042;2022-09-01T05:03:10;101962.81;;;10.09;100.00
25658;BME280;13517;59.320;18.042;2022-09-01T05:05:44;101956.41;;;10.12;100.00
25658;BME280;13517;59.320;18.042;2022-09-01T05:08:19;101970.41;;;10.21;100.00
25658;BME280;13517;59.320;18.042;2022-09-01T05:10:48;101973.09;;;10.21;100.00
25658;BME280;13517;59.320;18.042;2022-09-01T05:13:17;101979.50;;;10.19;100.00
25658;BME280;13517;59.320;18.042;2022-09-01T05:15:44;101982.13;;;10.20;100.00
25658;BME280;13517;59.320;18.042;2022-09-01T05:18:15;101977.63;;;10.21;100.00
25658;BME280;13517;59.320;18.042;2022-09-01T05:20:49;101986.53;;;10.23;100.00
25658;BME280;13517;59.320;18.042;2022-09-01T05:23:15;101965.47;;;10.11;100.00
25658;BME280;13517;59.320;18.042;2022-09-01T05:25:45;101992.94;;;10.20;100.00
25658;BME280;13517;59.320;18.042;2022-09-01T05:28:12;101988.38;;;10.22;100.00
25658;BME280;13517;59.320;18.042;2022-09-01T05:30:39;101975.66;;;10.25;100.00
25658;BME280;13517;59.320;18.042;2022-09-01T05:33:06;101985.41;;;10.29;100.00
25658;BME280;13517;59.320;18.042;2022-09-01T05:35:52;101972.84;;;10.28;100.00
25658;BME280;13517;59.320;18.042;2022-09-01T05:38:19;101979.91;;;10.30;100.00
25658;BME280;13517;59.320;18.042;2022-09-01T05:40:54;101967.44;;;10.28;100.00
25658;BME280;13517;59.320;18.042;2022-09-01T05:43:20;101976.13;;;10.34;100.00
25658;BME280;13517;59.320;18.042;2022-09-01T05:45:46;102000.16;;;10.42;100.00
25658;BME280;13517;59.320;18.042;2022-09-01T05:48:12;101982.69;;;10.29;100.00
25658;BME280;13517;59.320;18.042;2022-09-01T05:50:44;101990.59;;;10.33;100.00
25658;BME280;13517;59.320;18.042;2022-09-01T05:53:11;101997.06;;;10.29;100.00
25658;BME280;13517;59.320;18.042;2022-09-01T05:55:45;101995.50;;;10.24;100.00
25658;BME280;13517;59.320;18.042;2022-09-01T05:58:12;101990.91;;;10.26;100.00
25658;BME280;13517;59.320;18.042;2022-09-01T06:00:43;102000.13;;;10.21;100.00
25658;BME280;13517;59.320;18.042;2022-09-01T06:03:12;101996.59;;;10.19;100.00
25658;BME280;13517;59.320;18.042;2022-09-01T06:05:39;101999.28;;;10.19;100.00
25658;BME280;13517;59.320;18.042;2022-09-01T06:08:06;101986.94;;;10.14;100.00
25658;BME280;13517;59.320;18.042;2022-09-01T06:10:34;102000.78;;;10.27;100.00
25658;BME280;13517;59.320;18.042;2022-09-01T06:13:02;101995.72;;;10.19;100.00
25658;BME280;13517;59.320;18.042;2022-09-01T06:15:31;101987.06;;;10.11;100.00
25658;BME280;13517;59.320;18.042;2022-09-01T06:17:57;101995.50;;;10.24;100.00
25658;BME280;13517;59.320;18.042;2022-09-01T06:20:23;101994.16;;;10.34;100.00
25658;BME280;13517;59.320;18.042;2022-09-01T06:22:49;101983.09;;;10.40;100.00
25658;BME280;13517;59.320;18.042;2022-09-01T06:25:16;101998.94;;;10.49;100.00
25658;BME280;13517;59.320;18.042;2022-09-01T06:27:43;101967.66;;;10.44;100.00
25658;BME280;13517;59.320;18.042;2022-09-01T06:30:10;101976.28;;;10.52;100.00
25658;BME280;13517;59.320;18.042;2022-09-01T06:32:43;101985.56;;;10.67;100.00
25658;BME280;13517;59.320;18.042;2022-09-01T06:35:13;101988.78;;;10.75;100.00
25658;BME280;13517;59.320;18.042;2022-09-01T06:37:41;101971.91;;;10.70;100.00
25658;BME280;13517;59.320;18.042;2022-09-01T06:40:10;101975.66;;;10.87;100.00
25658;BME280;13517;59.320;18.042;2022-09-01T06:42:43;101957.81;;;10.83;100.00
25658;BME280;13517;59.320;18.042;2022-09-01T06:45:10;101949.66;;;10.84;100.00
25658;BME280;13517;59.320;18.042;2022-09-01T06:47:35;101958.53;;;10.86;100.00
25658;BME280;13517;59.320;18.042;2022-09-01T06:50:02;101936.41;;;10.78;100.00
25658;BME280;13517;59.320;18.042;2022-09-01T06:52:27;101965.31;;;10.97;100.00
25658;BME280;13517;59.320;18.042;2022-09-01T06:54:53;101953.47;;;10.99;100.00
25658;BME280;13517;59.320;18.042;2022-09-01T06:57:19;101989.66;;;11.16;100.00
25658;BME280;13517;59.320;18.042;2022-09-01T06:59:46;101955.06;;;11.03;100.00
25658;BME280;13517;59.320;18.042;2022-09-01T07:02:13;101986.78;;;11.19;100.00
25658;BME280;13517;59.320;18.042;2022-09-01T07:04:43;101953.19;;;11.06;100.00
25658;BME280;13517;59.320;18.042;2022-09-01T07:07:10;101968.69;;;11.21;100.00
25658;BME280;13517;59.320;18.042;2022-09-01T07:09:38;101975.38;;;11.31;100.00
25658;BME280;13517;59.320;18.042;2022-09-01T07:12:05;101986.22;;;11.31;100.00
25658;BME280;13517;59.320;18.042;2022-09-01T07:14:30;101972.84;;;11.28;100.00
25658;BME280;13517;59.320;18.042;2022-09-01T07:16:55;101969.19;;;11.29;100.00
25658;BME280;13517;59.320;18.042;2022-09-01T07:19:23;101976.06;;;11.37;100.00
25658;BME280;13517;59.320;18.042;2022-09-01T07:21:51;101962.38;;;11.40;100.00
25658;BME280;13517;59.320;18.042;2022-09-01T07:24:17;101965.66;;;11.47;100.00
25658;BME280;13517;59.320;18.042;2022-09-01T07:26:43;101971.94;;;11.66;100.00
25658;BME280;13517;59.320;18.042;2022-09-01T07:29:15;101956.22;;;11.55;100.00
25658;BME280;13517;59.320;18.042;2022-09-01T07:31:42;101987.13;;;11.69;100.00
25658;BME280;13517;59.320;18.042;2022-09-01T07:34:10;101989.53;;;11.75;100.00
25658;BME280;13517;59.320;18.042;2022-09-01T07:36:41;102007.09;;;11.85;99.86
25658;BME280;13517;59.320;18.042;2022-09-01T07:39:10;101982.00;;;11.82;98.47
25658;BME280;13517;59.320;18.042;2022-09-01T07:41:38;101988.91;;;11.88;97.37
25658;BME280;13517;59.320;18.042;2022-09-01T07:44:07;102000.97;;;11.99;97.25
25658;BME280;13517;59.320;18.042;2022-09-01T07:46:34;101986.13;;;12.08;96.66
25658;BME280;13517;59.320;18.042;2022-09-01T07:49:00;101989.63;;;12.10;96.69
25658;BME280;13517;59.320;18.042;2022-09-01T07:51:27;102001.25;;;12.30;96.46
25658;BME280;13517;59.320;18.042;2022-09-01T07:53:54;101982.28;;;12.30;94.17
25658;BME280;13517;59.320;18.042;2022-09-01T07:56:21;101995.44;;;12.56;92.32
25658;BME280;13517;59.320;18.042;2022-09-01T07:58:48;101996.47;;;12.71;90.69
25658;BME280;13517;59.320;18.042;2022-09-01T08:01:20;101996.75;;;12.82;89.98
25658;BME280;13517;59.320;18.042;2022-09-01T08:03:48;101990.69;;;13.11;90.16
25658;BME280;13517;59.320;18.042;2022-09-01T08:06:17;101992.44;;;13.12;88.74
25658;BME280;13517;59.320;18.042;2022-09-01T08:08:44;102004.63;;;13.20;88.35
25658;BME280;13517;59.320;18.042;2022-09-01T08:11:15;101996.66;;;13.17;86.28
25658;BME280;13517;59.320;18.042;2022-09-01T08:13:40;101979.59;;;13.15;88.37
25658;BME280;13517;59.320;18.042;2022-09-01T08:16:06;101960.44;;;13.18;86.91
25658;BME280;13517;59.320;18.042;2022-09-01T08:18:32;101980.03;;;13.24;86.62
25658;BME280;13517;59.320;18.042;2022-09-01T08:20:58;101974.78;;;13.20;86.47
25658;BME280;13517;59.320;18.042;2022-09-01T08:23:23;101958.31;;;13.24;86.41
25658;BME280;13517;59.320;18.042;2022-09-01T08:25:52;101971.31;;;13.51;86.31
25658;BME280;13517;59.320;18.042;2022-09-01T08:28:18;102003.91;;;13.67;85.43
25658;BME280;13517;59.320;18.042;2022-09-01T08:30:45;101976.56;;;13.70;84.01
25658;BME280;13517;59.320;18.042;2022-09-01T08:33:10;101980.94;;;13.72;84.25
25658;BME280;13517;59.320;18.042;2022-09-01T08:35:38;101992.50;;;13.60;87.30
25658;BME280;13517;59.320;18.042;2022-09-01T08:38:04;102008.44;;;12.31;98.34
25658;BME280;13517;59.320;18.042;2022-09-01T08:40:29;102010.34;;;11.55;100.00
25658;BME280;13517;59.320;18.042;2022-09-01T08:45:54;101996.88;;;10.75;100.00
25658;BME280;13517;59.320;18.042;2022-09-01T08:48:25;102013.19;;;10.74;100.00
25658;BME280;13517;59.320;18.042;2022-09-01T08:51:02;102011.50;;;10.51;100.00
25658;BME280;13517;59.320;18.042;2022-09-01T08:53:38;101998.94;;;10.49;100.00
25658;BME280;13517;59.320;18.042;2022-09-01T08:56:08;101998.25;;;10.65;100.00
25658;BME280;13517;59.320;18.042;2022-09-01T08:58:35;102007.31;;;10.85;100.00
25658;BME280;13517;59.320;18.042;2022-09-01T09:01:17;101992.47;;;10.94;100.00
25658;BME280;13517;59.320;18.042;2022-09-01T09:09:13;101986.94;;;11.16;100.00
25658;BME280;13517;59.320;18.042;2022-09-01T09:12:10;101998.94;;;11.29;100.00
25658;BME280;13517;59.320;18.042;2022-09-01T09:17:12;101988.09;;;11.49;100.00
25658;BME280;13517;59.320;18.042;2022-09-01T09:19:41;101997.75;;;11.54;100.00
25658;BME280;13517;59.320;18.042;2022-09-01T09:22:12;101994.63;;;11.81;100.00
25658;BME280;13517;59.320;18.042;2022-09-01T09:27:21;101997.75;;;12.28;100.00
25658;BME280;13517;59.320;18.042;2022-09-01T09:29:56;101989.63;;;12.46;100.00
25658;BME280;13517;59.320;18.042;2022-09-01T09:32:24;101988.66;;;12.64;100.00
25658;BME280;13517;59.320;18.042;2022-09-01T09:34:50;101976.38;;;12.57;100.00
25658;BME280;13517;59.320;18.042;2022-09-01T09:37:27;101972.88;;;12.55;100.00
25658;BME280;13517;59.320;18.042;2022-09-01T09:42:38;101977.91;;;12.45;100.00
25658;BME280;13517;59.320;18.042;2022-09-01T09:45:25;101970.97;;;12.39;100.00
25658;BME280;13517;59.320;18.042;2022-09-01T09:47:54;101977.53;;;12.35;100.00
25658;BME280;13517;59.320;18.042;2022-09-01T09:52:48;101959.44;;;12.18;100.00
25658;BME280;13517;59.320;18.042;2022-09-01T09:55:23;101967.97;;;12.28;100.00
25658;BME280;13517;59.320;18.042;2022-09-01T09:57:54;101956.94;;;12.31;100.00
25658;BME280;13517;59.320;18.042;2022-09-01T10:00:32;101981.34;;;12.49;100.00
25658;BME280;13517;59.320;18.042;2022-09-01T10:03:07;101992.25;;;12.47;100.00
25658;BME280;13517;59.320;18.042;2022-09-01T10:05:44;101969.53;;;12.50;100.00
25658;BME280;13517;59.320;18.042;2022-09-01T10:08:35;101958.63;;;12.51;100.00
25658;BME280;13517;59.320;18.042;2022-09-01T10:11:03;101985.38;;;12.75;100.00
25658;BME280;13517;59.320;18.042;2022-09-01T10:13:30;101973.59;;;12.92;100.00
25658;BME280;13517;59.320;18.042;2022-09-01T10:15:57;101963.03;;;13.20;100.00
25658;BME280;13517;59.320;18.042;2022-09-01T10:18:44;101976.44;;;13.23;95.57
25658;BME280;13517;59.320;18.042;2022-09-01T10:21:15;101985.63;;;13.20;100.00
25658;BME280;13517;59.320;18.042;2022-09-01T10:23:41;101995.81;;;12.83;100.00
25658;BME280;13517;59.320;18.042;2022-09-01T10:26:17;102015.50;;;11.79;100.00
25658;BME280;13517;59.320;18.042;2022-09-01T10:28:58;101995.53;;;10.86;100.00
25658;BME280;13517;59.320;18.042;2022-09-01T10:31:25;101978.84;;;10.76;100.00
25658;BME280;13517;59.320;18.042;2022-09-01T10:33:52;101976.53;;;10.87;100.00
25658;BME280;13517;59.320;18.042;2022-09-01T10:36:18;101985.31;;;11.12;100.00
25658;BME280;13517;59.320;18.042;2022-09-01T10:38:45;101977.38;;;11.28;100.00
25658;BME280;13517;59.320;18.042;2022-09-01T10:41:42;101985.16;;;11.53;100.00
25658;BME280;13517;59.320;18.042;2022-09-01T10:44:10;101984.16;;;11.56;100.00
25658;BME280;13517;59.320;18.042;2022-09-01T10:46:43;101987.88;;;11.53;100.00
25658;BME280;13517;59.320;18.042;2022-09-01T10:51:53;101985.50;;;11.84;100.00
25658;BME280;13517;59.320;18.042;2022-09-01T10:54:48;101985.13;;;11.92;100.00
25658;BME280;13517;59.320;18.042;2022-09-01T10:59:42;101991.59;;;12.07;100.00
25658;BME280;13517;59.320;18.042;2022-09-01T11:02:16;101987.72;;;12.12;100.00
25658;BME280;13517;59.320;18.042;2022-09-01T11:15:31;101977.81;;;12.64;100.00
25658;BME280;13517;59.320;18.042;2022-09-01T11:20:31;101952.16;;;12.88;95.51
25658;BME280;13517;59.320;18.042;2022-09-01T11:25:43;101965.66;;;13.05;88.91
25658;BME280;13517;59.320;18.042;2022-09-01T11:33:51;101987.56;;;13.34;83.18
25658;BME280;13517;59.320;18.042;2022-09-01T11:38:58;102024.63;;;13.02;85.39
25658;BME280;13517;59.320;18.042;2022-09-01T11:44:12;102015.88;;;12.45;91.15
25658;BME280;13517;59.320;18.042;2022-09-01T11:46:38;101993.03;;;12.49;91.96
25658;BME280;13517;59.320;18.042;2022-09-01T11:49:24;102004.00;;;12.48;84.67
25658;BME280;13517;59.320;18.042;2022-09-01T11:51:51;101998.56;;;12.48;83.23
25658;BME280;13517;59.320;18.042;2022-09-01T11:54:17;101981.16;;;12.52;92.84
25658;BME280;13517;59.320;18.042;2022-09-01T11:56:42;101993.91;;;12.67;92.71
25658;BME280;13517;59.320;18.042;2022-09-01T11:59:08;101976.97;;;12.80;91.51
25658;BME280;13517;59.320;18.042;2022-09-01T12:01:38;101999.25;;;13.03;84.04
25658;BME280;13517;59.320;18.042;2022-09-01T12:04:23;101989.72;;;13.12;79.52
25658;BME280;13517;59.320;18.042;2022-09-01T12:06:57;101982.66;;;13.25;87.00
25658;BME280;13517;59.320;18.042;2022-09-01T12:09:40;101993.00;;;13.34;83.62
25658;BME280;13517;59.320;18.042;2022-09-01T12:12:24;101985.88;;;13.32;88.49
25658;BME280;13517;59.320;18.042;2022-09-01T12:14:58;101991.16;;;13.35;81.75
25658;BME280;13517;59.320;18.042;2022-09-01T12:17:24;101963.84;;;13.22;87.56
25658;BME280;13517;59.320;18.042;2022-09-01T12:19:50;101985.44;;;13.24;84.58
25658;BME280;13517;59.320;18.042;2022-09-01T12:22:17;101989.50;;;13.32;83.81
25658;BME280;13517;59.320;18.042;2022-09-01T12:24:50;101959.72;;;13.15;75.29
25658;BME280;13517;59.320;18.042;2022-09-01T12:27:16;101985.78;;;13.17;83.16
25658;BME280;13517;59.320;18.042;2022-09-01T12:29:42;101969.41;;;13.03;83.31
25658;BME280;13517;59.320;18.042;2022-09-01T12:32:07;101965.47;;;12.92;81.50
25658;BME280;13517;59.320;18.042;2022-09-01T12:34:39;101990.13;;;12.88;78.76
25658;BME280;13517;59.320;18.042;2022-09-01T12:39:40;101991.31;;;12.82;64.34
25658;BME280;13517;59.320;18.042;2022-09-01T12:45:04;101971.03;;;12.89;72.09
25658;BME280;13517;59.320;18.042;2022-09-01T12:52:53;101943.75;;;12.92;75.31
25658;BME280;13517;59.320;18.042;2022-09-01T12:55:23;101974.00;;;13.18;79.42
25658;BME280;13517;59.320;18.042;2022-09-01T12:57:51;101953.44;;;13.30;77.76
25658;BME280;13517;59.320;18.042;2022-09-01T13:05:25;101953.63;;;13.75;71.84
25658;BME280;13517;59.320;18.042;2022-09-01T13:07:56;101953.66;;;13.90;76.58
25658;BME280;13517;59.320;18.042;2022-09-01T13:10:26;101972.81;;;14.03;68.71
25658;BME280;13517;59.320;18.042;2022-09-01T13:12:54;101950.16;;;13.88;75.57
25658;BME280;13517;59.320;18.042;2022-09-01T13:15:23;101955.94;;;13.82;76.53
25658;BME280;13517;59.320;18.042;2022-09-01T13:17:50;101955.53;;;13.73;76.11
25658;BME280;13517;59.320;18.042;2022-09-01T13:20:15;101950.19;;;13.72;77.06
25658;BME280;13517;59.320;18.042;2022-09-01T13:22:41;101981.78;;;13.89;77.46
25658;BME280;13517;59.320;18.042;2022-09-01T13:25:08;101946.66;;;13.86;77.42
25658;BME280;13517;59.320;18.042;2022-09-01T13:27:35;101984.00;;;13.82;78.27
25658;BME280;13517;59.320;18.042;2022-09-01T13:30:03;101977.78;;;13.64;79.13
25658;BME280;13517;59.320;18.042;2022-09-01T13:32:30;102009.13;;;13.38;82.21
25658;BME280;13517;59.320;18.042;2022-09-01T13:34:55;101954.03;;;13.19;82.58
25658;BME280;13517;59.320;18.042;2022-09-01T13:37:21;101984.59;;;13.23;81.68
25658;BME280;13517;59.320;18.042;2022-09-01T13:39:47;102003.16;;;13.15;81.93
25658;BME280;13517;59.320;18.042;2022-09-01T13:42:13;102003.25;;;12.96;82.21
25658;BME280;13517;59.320;18.042;2022-09-01T13:44:39;101979.56;;;12.65;84.73
25658;BME280;13517;59.320;18.042;2022-09-01T13:47:04;101983.56;;;12.58;86.57
25658;BME280;13517;59.320;18.042;2022-09-01T13:49:30;101994.72;;;12.52;86.53
25658;BME280;13517;59.320;18.042;2022-09-01T13:51:55;102003.34;;;12.43;86.71
25658;BME280;13517;59.320;18.042;2022-09-01T13:54:21;101998.72;;;12.45;87.34
25658;BME280;13517;59.320;18.042;2022-09-01T13:56:46;101977.84;;;12.29;88.54
25658;BME280;13517;59.320;18.042;2022-09-01T13:59:12;101972.91;;;12.20;90.31